Eskisehir, Turkey
Current Conditions -  °F | °C
As of 7:50 AM on Saturday 29 Nov 2014 (Local Time) from LTBY Reporting Station
Clear Clear  
Wind Chill: 34°   Ceiling: Unl
Heat Index: 34°   Visibility: 4mi
Dew Point: 32°   Wind: 0mph
Humidity: 93%   Direction: NA
Pressure: 30.3"   Gusts: NA
Location:  39.79°N, 30.52°E
Report Text: LTBY 290450Z 00000KT 6000 NSC 01/00 Q1026
Loading
Personal Weather Stations






























Interactive Weather Map New forecast layout! Learn more

10-Day Weather Forecast

Advertisements
Track Severe Weather on mobile